Arches Natl Park, Utah
Current Conditions -  °F | °C
As of 3:53 PM on Tuesday 25 Nov 2014 (Local Time) from KCNY Reporting Station
Clear Clear  
Wind Chill:   Ceiling: Unl
Heat Index:   Visibility: 10mi
Dew Point: -13°   Wind: 5mph
Humidity: 22%   Direction: 350°N
Pressure: 30.26"   Gusts: NA
Location:  38.7°N, 109.75°W
Report Text: KCNY 252253Z AUTO 35004KT 10SM CLR 08/M13 A3026 RMK AO2 SLP263 T00781128
Loading
Personal Weather Stations






























Interactive Weather Map New forecast layout! Learn more

10-Day Weather Forecast

Advertisements
Track Severe Weather on mobile